Ferry Kyoto2 — JI3701 — position and weather

sailwx.info

Track history (hours):
 
Tides and Currents Weather Stations Pressure Air Temp Water Temp Dewpoint Dewpoint Depression Visibility Wind Speed Wind Dir Waves Ship Positions

Ferry Kyoto2

Last reported at 2014-Oct-01 15:28 UTC. Time now 2014-Oct-01 16:23 UTC.
Position N 33°59' E 132°44'.

Length 167 m; draft 6 m.

Type: Passenger vessel. MMSI: 431301641.

Date/timePositionNaut miles runAvg speedWind from/ knotsBaromVisibWave heightAir tempDewpointWater temp
2014-Oct-01 15:28N 33°59' E 132°44'110 4.1
2014-Sep-30 12:31N 34°35' E 134°50'1920.1
2014-Sep-30 11:33N 34°36' E 135°13'10 8.9
2014-Sep-30 10:24N 34°37' E 135°26'0 0.0
2014-Sep-30 09:30N 34°37' E 135°26'0 0.0
2014-Sep-30 08:30N 34°37' E 135°26'0 0.0
2014-Sep-30 07:24N 34°37' E 135°26'0 0.0
2014-Sep-30 06:24N 34°37' E 135°26'0 0.0
2014-Sep-30 05:30N 34°37' E 135°26'0 0.0
2014-Sep-30 04:18N 34°37' E 135°26'0 0.0
2014-Sep-30 03:24N 34°37' E 135°26'0 0.0
2014-Sep-30 02:24N 34°37' E 135°26'0 0.0
2014-Sep-30 01:30N 34°37' E 135°26'0 0.0
2014-Sep-30 00:24N 34°37' E 135°26'0 0.0
2014-Sep-29 23:33N 34°37' E 135°26'9 9.2
2014-Sep-29 22:34N 34°35' E 135°15'2019.5
2014-Sep-29 21:33N 34°34' E 134°51'11218.2
2014-Sep-29 15:25N 33°58' E 132°43'2 0.1
2014-Sep-28 18:33N 33°57' E 132°41'11118.5
2014-Sep-28 12:33N 34°34' E 134°48'2121.3
2014-Sep-28 11:33N 34°36' E 135°13'10 9.9
2014-Sep-28 10:31N 34°37' E 135°26'0 0.0
2014-Sep-28 09:31N 34°37' E 135°26'0 0.0
2014-Sep-28 08:31N 34°37' E 135°26'0 0.0
2014-Sep-28 07:31N 34°37' E 135°26'0 0.0
2014-Sep-28 06:31N 34°37' E 135°26'0 0.0
2014-Sep-28 05:31N 34°37' E 135°26'0 0.0
2014-Sep-28 04:31N 34°37' E 135°26'0 0.0
2014-Sep-28 03:31N 34°37' E 135°26'0 0.0
2014-Sep-28 02:31N 34°37' E 135°26'0 0.0
2014-Sep-28 01:31N 34°37' E 135°26'0 0.0
2014-Sep-28 00:31N 34°37' E 135°26'0 0.0
2014-Sep-27 23:33N 34°37' E 135°26'1010.0
2014-Sep-27 22:33N 34°35' E 135°14'1918.8
2014-Sep-27 21:33N 34°34' E 134°51'9918.3
2014-Sep-27 16:08N 34°10' E 132°54'1322.3
2014-Sep-27 15:33N 33°60' E 132°45'2121.4
2014-Sep-27 14:33N 33°46' E 132°25'17 0.8
2014-Sep-26 18:26N 33°57' E 132°41'11218.8
2014-Sep-26 12:30N 34°34' E 134°49'2122.3
2014-Sep-26 11:34N 34°36' E 135°14'10 9.8
2014-Sep-26 10:33N 34°37' E 135°26'0 0.0
2014-Sep-26 09:33N 34°37' E 135°26'0 0.0
2014-Sep-26 08:33N 34°37' E 135°26'0 0.0
2014-Sep-26 07:33N 34°37' E 135°26'0 0.0
2014-Sep-26 06:15N 34°37' E 135°26'0 0.0
2014-Sep-26 05:27N 34°37' E 135°26'0 0.0
2014-Sep-26 04:33N 34°37' E 135°26'0 0.0
2014-Sep-26 03:33N 34°37' E 135°26'0 0.0
2014-Sep-26 02:33N 34°37' E 135°26'0 0.0
2014-Sep-26 01:33N 34°37' E 135°26'0 0.0
2014-Sep-26 00:33N 34°37' E 135°26'0 0.0
2014-Sep-25 23:33N 34°37' E 135°26'1211.6
2014-Sep-25 22:33N 34°34' E 135°12'1717.0
2014-Sep-25 21:32N 34°34' E 134°51'10818.1
2014-Sep-25 15:33N 34°01' E 132°46'2321.4
2014-Sep-25 14:27N 33°46' E 132°25'8 0.4
2014-Sep-24 19:32N 33°50' E 132°17'2119.3
2014-Sep-24 18:27N 33°57' E 132°41'11018.6
2014-Sep-24 12:33N 34°34' E 134°46'2222.4
2014-Sep-24 11:33N 34°36' E 135°13'11 9.7
2014-Sep-24 10:27N 34°37' E 135°26'0 0.0
2014-Sep-24 09:33N 34°37' E 135°26'0 0.0
2014-Sep-24 08:15N 34°37' E 135°26'0 0.0
2014-Sep-24 07:33N 34°37' E 135°26'0 0.0
2014-Sep-24 06:33N 34°37' E 135°26'0 0.0
2014-Sep-24 05:33N 34°37' E 135°26'0 0.0
2014-Sep-24 04:33N 34°37' E 135°26'0 0.0
2014-Sep-24 03:33N 34°37' E 135°26'0 0.0
2014-Sep-24 02:33N 34°37' E 135°26'0 0.0
2014-Sep-24 01:33N 34°37' E 135°26'0 0.0
2014-Sep-24 00:33N 34°37' E 135°26'0 0.0
2014-Sep-23 23:33N 34°37' E 135°26'1010.3
2014-Sep-23 22:33N 34°35' E 135°13'1716.8
2014-Sep-23 21:33N 34°35' E 134°53'10917.8
2014-Sep-23 15:26N 34°02' E 132°47'1921.2
2014-Sep-23 14:32N 33°51' E 132°28'12 0.6
2014-Sep-22 18:22N 33°57' E 132°41'10918.6
2014-Sep-22 12:32N 34°33' E 134°45'2222.4
2014-Sep-22 11:33N 34°36' E 135°12'1211.5
2014-Sep-22 10:32N 34°37' E 135°26'0 0.0
2014-Sep-22 09:32N 34°37' E 135°26'0 0.0
2014-Sep-22 08:32N 34°37' E 135°26'0 0.0
2014-Sep-22 07:32N 34°37' E 135°26'0 0.0
2014-Sep-22 06:26N 34°37' E 135°26'0 0.0
2014-Sep-22 05:20N 34°37' E 135°26'0 0.0
2014-Sep-22 04:32N 34°37' E 135°26'0 0.0
2014-Sep-22 03:32N 34°37' E 135°26'0 0.0
2014-Sep-22 02:32N 34°37' E 135°26'0 0.0
2014-Sep-22 01:32N 34°37' E 135°26'0 0.0
2014-Sep-22 00:32N 34°37' E 135°26'0 0.0
2014-Sep-21 23:34N 34°37' E 135°26'1110.6
2014-Sep-21 22:34N 34°35' E 135°13'1717.4
2014-Sep-21 21:34N 34°34' E 134°52'9718.3
2014-Sep-21 16:15N 34°07' E 132°59'  
Track history (hours):
 
Tides and Currents Weather Stations Pressure Air Temp Water Temp Dewpoint Dewpoint Depression Visibility Wind Speed Wind Dir Waves Ship Positions

Ferry Kyoto2

Last reported at 2014-Oct-01 15:28 UTC. Time now 2014-Oct-01 16:23 UTC.
Position N 33°59' E 132°44'.

Length 167 m; draft 6 m.

Type: Passenger vessel. MMSI: 431301641.

Date/timePositionNaut miles runAvg speedWind from/ knotsBaromVisibWave heightAir tempDewpointWater temp
2014-Oct-01 15:28N 33°59' E 132°44'110 4.1
2014-Sep-30 12:31N 34°35' E 134°50'1920.1
2014-Sep-30 11:33N 34°36' E 135°13'10 8.9
2014-Sep-30 10:24N 34°37' E 135°26'0 0.0
2014-Sep-30 09:30N 34°37' E 135°26'0 0.0
2014-Sep-30 08:30N 34°37' E 135°26'0 0.0
2014-Sep-30 07:24N 34°37' E 135°26'0 0.0
2014-Sep-30 06:24N 34°37' E 135°26'0 0.0
2014-Sep-30 05:30N 34°37' E 135°26'0 0.0
2014-Sep-30 04:18N 34°37' E 135°26'0 0.0
2014-Sep-30 03:24N 34°37' E 135°26'0 0.0
2014-Sep-30 02:24N 34°37' E 135°26'0 0.0
2014-Sep-30 01:30N 34°37' E 135°26'0 0.0
2014-Sep-30 00:24N 34°37' E 135°26'0 0.0
2014-Sep-29 23:33N 34°37' E 135°26'9 9.2
2014-Sep-29 22:34N 34°35' E 135°15'2019.5
2014-Sep-29 21:33N 34°34' E 134°51'11218.2
2014-Sep-29 15:25N 33°58' E 132°43'2 0.1
2014-Sep-28 18:33N 33°57' E 132°41'11118.5
2014-Sep-28 12:33N 34°34' E 134°48'2121.3
2014-Sep-28 11:33N 34°36' E 135°13'10 9.9
2014-Sep-28 10:31N 34°37' E 135°26'0 0.0
2014-Sep-28 09:31N 34°37' E 135°26'0 0.0
2014-Sep-28 08:31N 34°37' E 135°26'0 0.0
2014-Sep-28 07:31N 34°37' E 135°26'0 0.0
2014-Sep-28 06:31N 34°37' E 135°26'0 0.0
2014-Sep-28 05:31N 34°37' E 135°26'0 0.0
2014-Sep-28 04:31N 34°37' E 135°26'0 0.0
2014-Sep-28 03:31N 34°37' E 135°26'0 0.0
2014-Sep-28 02:31N 34°37' E 135°26'0 0.0
2014-Sep-28 01:31N 34°37' E 135°26'0 0.0
2014-Sep-28 00:31N 34°37' E 135°26'0 0.0
2014-Sep-27 23:33N 34°37' E 135°26'1010.0
2014-Sep-27 22:33N 34°35' E 135°14'1918.8
2014-Sep-27 21:33N 34°34' E 134°51'9918.3
2014-Sep-27 16:08N 34°10' E 132°54'1322.3
2014-Sep-27 15:33N 33°60' E 132°45'2121.4
2014-Sep-27 14:33N 33°46' E 132°25'17 0.8
2014-Sep-26 18:26N 33°57' E 132°41'11218.8
2014-Sep-26 12:30N 34°34' E 134°49'2122.3
2014-Sep-26 11:34N 34°36' E 135°14'10 9.8
2014-Sep-26 10:33N 34°37' E 135°26'0 0.0
2014-Sep-26 09:33N 34°37' E 135°26'0 0.0
2014-Sep-26 08:33N 34°37' E 135°26'0 0.0
2014-Sep-26 07:33N 34°37' E 135°26'0 0.0
2014-Sep-26 06:15N 34°37' E 135°26'0 0.0
2014-Sep-26 05:27N 34°37' E 135°26'0 0.0
2014-Sep-26 04:33N 34°37' E 135°26'0 0.0
2014-Sep-26 03:33N 34°37' E 135°26'0 0.0
2014-Sep-26 02:33N 34°37' E 135°26'0 0.0
2014-Sep-26 01:33N 34°37' E 135°26'0 0.0
2014-Sep-26 00:33N 34°37' E 135°26'0 0.0
2014-Sep-25 23:33N 34°37' E 135°26'1211.6
2014-Sep-25 22:33N 34°34' E 135°12'1717.0
2014-Sep-25 21:32N 34°34' E 134°51'10818.1
2014-Sep-25 15:33N 34°01' E 132°46'2321.4
2014-Sep-25 14:27N 33°46' E 132°25'8 0.4
2014-Sep-24 19:32N 33°50' E 132°17'2119.3
2014-Sep-24 18:27N 33°57' E 132°41'11018.6
2014-Sep-24 12:33N 34°34' E 134°46'2222.4
2014-Sep-24 11:33N 34°36' E 135°13'11 9.7
2014-Sep-24 10:27N 34°37' E 135°26'0 0.0
2014-Sep-24 09:33N 34°37' E 135°26'0 0.0
2014-Sep-24 08:15N 34°37' E 135°26'0 0.0
2014-Sep-24 07:33N 34°37' E 135°26'0 0.0
2014-Sep-24 06:33N 34°37' E 135°26'0 0.0
2014-Sep-24 05:33N 34°37' E 135°26'0 0.0
2014-Sep-24 04:33N 34°37' E 135°26'0 0.0
2014-Sep-24 03:33N 34°37' E 135°26'0 0.0
2014-Sep-24 02:33N 34°37' E 135°26'0 0.0
2014-Sep-24 01:33N 34°37' E 135°26'0 0.0
2014-Sep-24 00:33N 34°37' E 135°26'0 0.0
2014-Sep-23 23:33N 34°37' E 135°26'1010.3
2014-Sep-23 22:33N 34°35' E 135°13'1716.8
2014-Sep-23 21:33N 34°35' E 134°53'10917.8
2014-Sep-23 15:26N 34°02' E 132°47'1921.2
2014-Sep-23 14:32N 33°51' E 132°28'12 0.6
2014-Sep-22 18:22N 33°57' E 132°41'10918.6
2014-Sep-22 12:32N 34°33' E 134°45'2222.4
2014-Sep-22 11:33N 34°36' E 135°12'1211.5
2014-Sep-22 10:32N 34°37' E 135°26'0 0.0
2014-Sep-22 09:32N 34°37' E 135°26'0 0.0
2014-Sep-22 08:32N 34°37' E 135°26'0 0.0
2014-Sep-22 07:32N 34°37' E 135°26'0 0.0
2014-Sep-22 06:26N 34°37' E 135°26'0 0.0
2014-Sep-22 05:20N 34°37' E 135°26'0 0.0
2014-Sep-22 04:32N 34°37' E 135°26'0 0.0
2014-Sep-22 03:32N 34°37' E 135°26'0 0.0
2014-Sep-22 02:32N 34°37' E 135°26'0 0.0
2014-Sep-22 01:32N 34°37' E 135°26'0 0.0
2014-Sep-22 00:32N 34°37' E 135°26'0 0.0
2014-Sep-21 23:34N 34°37' E 135°26'1110.6
2014-Sep-21 22:34N 34°35' E 135°13'1717.4
2014-Sep-21 21:34N 34°34' E 134°52'9718.3
2014-Sep-21 16:15N 34°07' E 132°59'  

Dump ship's entire track history